createdAt,value
2017-06-24T00:00:27.813Z,19.9
2017-06-24T00:01:27.847Z,19.84
2017-06-24T00:02:27.894Z,19.84
2017-06-24T00:03:27.934Z,19.79
2017-06-24T00:04:28.279Z,19.8
2017-06-24T00:05:28.014Z,19.78
2017-06-24T00:06:28.104Z,19.78
2017-06-24T00:07:28.087Z,19.84
2017-06-24T00:08:28.137Z,19.78
2017-06-24T00:09:28.169Z,19.73
2017-06-24T00:10:28.213Z,19.78
2017-06-24T00:11:28.864Z,19.75
2017-06-24T00:12:28.599Z,19.72
2017-06-24T00:13:28.333Z,19.65
2017-06-24T00:14:28.374Z,19.72
2017-06-24T00:15:28.417Z,19.7
2017-06-24T00:16:28.452Z,19.72
2017-06-24T00:17:28.490Z,19.73
2017-06-24T00:18:28.536Z,19.63
2017-06-24T00:19:28.598Z,19.66
2017-06-24T00:20:28.613Z,19.66
2017-06-24T00:21:28.654Z,19.61
2017-06-24T00:22:28.704Z,19.65
2017-06-24T00:23:29.045Z,19.54
2017-06-24T00:24:28.788Z,19.48
2017-06-24T00:25:28.816Z,19.5
2017-06-24T00:26:28.854Z,19.57
2017-06-24T00:27:28.898Z,19.53
2017-06-24T00:28:29.246Z,19.43
2017-06-24T00:29:28.973Z,19.5
2017-06-24T00:30:29.018Z,19.39
2017-06-24T00:31:29.359Z,19.32
2017-06-24T00:32:29.096Z,19.33
2017-06-24T00:33:29.131Z,19.38
2017-06-24T00:34:29.178Z,19.33
2017-06-24T00:35:29.528Z,19.4
2017-06-24T00:36:29.259Z,19.28
2017-06-24T00:37:29.289Z,19.33
2017-06-24T00:38:29.330Z,19.38
2017-06-24T00:39:29.383Z,19.36
2017-06-24T00:40:29.415Z,19.32
2017-06-24T00:41:29.764Z,19.32
2017-06-24T00:42:29.799Z,19.4
2017-06-24T00:43:29.530Z,19.28
2017-06-24T00:44:29.878Z,19.29
2017-06-24T00:45:29.618Z,19.32
2017-06-24T00:46:29.654Z,19.25
2017-06-24T00:47:29.693Z,19.28
2017-06-24T00:48:30.038Z,19.23
2017-06-24T00:49:29.775Z,19.38
2017-06-24T00:50:30.121Z,19.35
2017-06-24T00:51:30.163Z,19.32
2017-06-24T00:52:29.891Z,19.28
2017-06-24T00:53:29.933Z,19.31
2017-06-24T00:54:30.275Z,19.28
2017-06-24T00:55:30.016Z,19.25
2017-06-24T00:56:30.057Z,19.29
2017-06-24T00:57:30.403Z,19.2
2017-06-24T00:58:30.133Z,19.31
2017-06-24T00:59:30.173Z,19.35
2017-06-24T01:00:30.214Z,19.28
2017-06-24T01:01:30.247Z,19.39
2017-06-24T01:02:30.290Z,19.29
2017-06-24T01:03:30.644Z,19.28
2017-06-24T01:04:30.373Z,19.32
2017-06-24T01:05:30.717Z,19.28
2017-06-24T01:06:30.455Z,19.29
2017-06-24T01:07:30.489Z,19.32
2017-06-24T01:08:30.532Z,19.28
2017-06-24T01:09:30.567Z,19.33
2017-06-24T01:10:30.613Z,19.36
2017-06-24T01:11:30.958Z,19.38
2017-06-24T01:12:30.697Z,19.31
2017-06-24T01:13:30.734Z,19.33
2017-06-24T01:14:31.083Z,19.32
2017-06-24T01:15:31.121Z,19.23
2017-06-24T01:16:31.163Z,19.32
2017-06-24T01:17:30.886Z,19.36
2017-06-24T01:18:30.934Z,19.29
2017-06-24T01:19:31.282Z,19.38
2017-06-24T01:20:31.005Z,19.36
2017-06-24T01:21:31.361Z,19.32
2017-06-24T01:22:31.087Z,19.25
2017-06-24T01:23:31.133Z,19.28
2017-06-24T01:24:31.172Z,19.25
2017-06-24T01:25:31.520Z,19.2
2017-06-24T01:26:31.245Z,19.23
2017-06-24T01:27:31.601Z,19.38
2017-06-24T01:28:31.335Z,19.25
2017-06-24T01:29:31.366Z,19.29
2017-06-24T01:30:31.719Z,19.25
2017-06-24T01:31:31.750Z,19.2
2017-06-24T01:32:31.794Z,19.23
2017-06-24T01:33:31.528Z,19.2
2017-06-24T01:34:31.571Z,19.23
2017-06-24T01:35:31.613Z,19.23
2017-06-24T01:36:31.644Z,19.2
2017-06-24T01:37:31.693Z,19.24
2017-06-24T01:38:32.346Z,19.25
2017-06-24T01:39:31.769Z,19.21
2017-06-24T01:40:31.814Z,19.21
2017-06-24T01:41:31.849Z,19.17
2017-06-24T01:42:31.889Z,19.21
2017-06-24T01:43:31.927Z,19.17
2017-06-24T01:44:31.964Z,19.15
2017-06-24T01:45:32.316Z,19.18
2017-06-24T01:46:32.044Z,19.18
2017-06-24T01:47:32.088Z,19.13
2017-06-24T01:48:32.128Z,19.2
2017-06-24T01:49:32.162Z,19.2
2017-06-24T01:50:32.516Z,19.21
2017-06-24T01:51:32.253Z,19.18
2017-06-24T01:52:32.287Z,19.17
2017-06-24T01:53:32.328Z,19.15
2017-06-24T01:54:32.362Z,19.2
2017-06-24T01:55:32.719Z,19.15
2017-06-24T01:56:32.445Z,19.08
2017-06-24T01:57:32.491Z,19.14
2017-06-24T01:58:32.524Z,19.11
2017-06-24T01:59:32.562Z,19.05
2017-06-24T02:00:32.918Z,19.06
2017-06-24T02:01:32.647Z,19.06
2017-06-24T02:02:32.991Z,19.11
2017-06-24T02:03:33.034Z,19.1
2017-06-24T02:04:32.763Z,19.02
2017-06-24T02:05:33.116Z,19.14
2017-06-24T02:06:32.841Z,19.08
2017-06-24T02:07:32.887Z,19.05
2017-06-24T02:08:33.239Z,19.17
2017-06-24T02:09:32.963Z,19.14
2017-06-24T02:10:33.007Z,19.13
2017-06-24T02:11:33.046Z,19.1
2017-06-24T02:12:33.083Z,19.1
2017-06-24T02:13:33.433Z,19.15
2017-06-24T02:14:33.162Z,19.15
2017-06-24T02:15:33.199Z,19.05
2017-06-24T02:16:33.244Z,19.1
2017-06-24T02:17:33.281Z,19.13
2017-06-24T02:18:33.332Z,19.11
2017-06-24T02:19:33.361Z,19.06
2017-06-24T02:20:33.407Z,19.1
2017-06-24T02:21:33.440Z,19.14
2017-06-24T02:22:33.483Z,19.11
2017-06-24T02:23:33.837Z,18.99
2017-06-24T02:24:33.557Z,18.97
2017-06-24T02:25:33.602Z,19.02
2017-06-24T02:26:33.642Z,19.1
2017-06-24T02:27:33.681Z,19.17
2017-06-24T02:28:33.722Z,19.13
2017-06-24T02:29:34.077Z,19.06
2017-06-24T02:30:34.104Z,18.98
2017-06-24T02:31:33.835Z,18.98
2017-06-24T02:32:34.194Z,18.98
2017-06-24T02:33:34.225Z,19.01
2017-06-24T02:34:33.960Z,19.05
2017-06-24T02:35:34.012Z,19.01
2017-06-24T02:36:34.037Z,18.97
2017-06-24T02:37:34.075Z,18.84
2017-06-24T02:38:34.116Z,18.95
2017-06-24T02:39:34.159Z,18.92
2017-06-24T02:40:34.200Z,18.84
2017-06-24T02:41:34.236Z,18.91
2017-06-24T02:42:34.586Z,18.83
2017-06-24T02:43:34.650Z,18.86
2017-06-24T02:44:34.361Z,18.82
2017-06-24T02:45:34.440Z,18.79
2017-06-24T02:46:34.440Z,18.76
2017-06-24T02:47:34.474Z,18.76
2017-06-24T02:48:34.826Z,18.77
2017-06-24T02:49:34.561Z,18.82
2017-06-24T02:50:34.908Z,18.74
2017-06-24T02:51:34.940Z,18.68
2017-06-24T02:52:34.986Z,18.72
2017-06-24T02:53:34.710Z,18.7
2017-06-24T02:54:35.059Z,18.77
2017-06-24T02:55:34.795Z,18.79
2017-06-24T02:56:34.835Z,18.68
2017-06-24T02:57:35.191Z,18.76
2017-06-24T02:58:34.917Z,18.73
2017-06-24T02:59:34.952Z,18.72
2017-06-24T03:00:34.991Z,18.73
2017-06-24T03:01:35.339Z,18.76
2017-06-24T03:02:35.072Z,18.72
2017-06-24T03:03:35.112Z,18.73
2017-06-24T03:04:35.461Z,18.83
2017-06-24T03:05:35.188Z,18.68
2017-06-24T03:06:35.544Z,18.67
2017-06-24T03:07:35.265Z,18.68
2017-06-24T03:08:35.313Z,18.72
2017-06-24T03:09:35.661Z,18.73
2017-06-24T03:10:35.392Z,18.68
2017-06-24T03:11:35.425Z,18.68
2017-06-24T03:12:35.471Z,18.74
2017-06-24T03:13:35.505Z,18.73
2017-06-24T03:14:35.858Z,18.73
2017-06-24T03:15:35.590Z,18.79
2017-06-24T03:16:35.937Z,18.7
2017-06-24T03:17:35.894Z,18.72
2017-06-24T03:18:36.015Z,18.73
2017-06-24T03:19:35.745Z,18.77
2017-06-24T03:20:35.792Z,18.7
2017-06-24T03:21:36.136Z,18.7
2017-06-24T03:22:35.869Z,18.79
2017-06-24T03:23:36.212Z,18.84
2017-06-24T03:24:36.563Z,18.86
2017-06-24T03:25:36.295Z,18.84
2017-06-24T03:26:36.331Z,18.83
2017-06-24T03:27:36.369Z,18.82
2017-06-24T03:28:36.330Z,18.87
2017-06-24T03:29:36.140Z,18.94
2017-06-24T03:30:36.225Z,18.91
2017-06-24T03:31:36.281Z,18.91
2017-06-24T03:32:36.568Z,18.97
2017-06-24T03:33:36.310Z,18.98
2017-06-24T03:34:36.346Z,18.97
2017-06-24T03:35:36.383Z,18.95
2017-06-24T03:36:36.430Z,18.95
2017-06-24T03:37:36.767Z,18.99
2017-06-24T03:38:36.813Z,18.98
2017-06-24T03:39:36.538Z,19.02
2017-06-24T03:40:36.590Z,18.92
2017-06-24T03:41:36.623Z,18.99
2017-06-24T03:42:36.971Z,19.06
2017-06-24T03:43:36.696Z,19.1
2017-06-24T03:44:36.743Z,19.06
2017-06-24T03:45:37.098Z,18.98
2017-06-24T03:46:36.819Z,19.05
2017-06-24T03:47:37.170Z,19.11
2017-06-24T03:48:37.204Z,19.02
2017-06-24T03:49:36.937Z,19.1
2017-06-24T03:50:36.981Z,19.01
2017-06-24T03:51:37.017Z,19.08
2017-06-24T03:52:37.061Z,19.08
2017-06-24T03:53:37.097Z,19.08
2017-06-24T03:54:37.148Z,19.2
2017-06-24T03:55:37.178Z,19.23
2017-06-24T03:56:37.837Z,19.28
2017-06-24T03:57:37.261Z,19.31
2017-06-24T03:58:37.298Z,19.33
2017-06-24T03:59:37.673Z,19.61
2017-06-24T04:00:37.379Z,19.84
2017-06-24T04:01:37.423Z,20.25
2017-06-24T04:02:37.462Z,20.54
2017-06-24T04:03:37.501Z,20.93
2017-06-24T04:04:37.868Z,21.21
2017-06-24T04:05:37.892Z,21.56
2017-06-24T04:06:37.622Z,21.97
2017-06-24T04:07:37.667Z,22.28
2017-06-24T04:08:37.704Z,22.57
2017-06-24T04:09:38.051Z,22.97
2017-06-24T04:10:37.786Z,23.22
2017-06-24T04:11:37.829Z,23.52
2017-06-24T04:12:37.865Z,23.67
2017-06-24T04:13:38.214Z,23.62
2017-06-24T04:14:38.576Z,23.47
2017-06-24T04:15:38.022Z,23.24
2017-06-24T04:16:38.041Z,23.02
2017-06-24T04:17:38.079Z,22.72
2017-06-24T04:18:38.122Z,22.56
2017-06-24T04:19:38.157Z,22.34
2017-06-24T04:20:38.213Z,22.14
2017-06-24T04:21:38.248Z,21.91
2017-06-24T04:22:38.286Z,21.91
2017-06-24T04:23:38.324Z,21.67
2017-06-24T04:24:38.369Z,21.64
2017-06-24T04:25:38.715Z,21.63
2017-06-24T04:26:38.449Z,21.5
2017-06-24T04:27:38.802Z,21.46
2017-06-24T04:28:38.839Z,21.39
2017-06-24T04:29:38.884Z,21.26
2017-06-24T04:30:38.919Z,21.29
2017-06-24T04:31:38.660Z,21.21
2017-06-24T04:32:38.700Z,21.2
2017-06-24T04:33:38.743Z,21.29
2017-06-24T04:34:38.777Z,21.61
2017-06-24T04:35:39.135Z,22.09
2017-06-24T04:36:38.864Z,22.43
2017-06-24T04:37:39.212Z,22.9
2017-06-24T04:38:38.952Z,23.24
2017-06-24T04:39:38.987Z,23.57
2017-06-24T04:40:39.335Z,23.8
2017-06-24T04:41:39.427Z,23.97
2017-06-24T04:42:39.112Z,24.05
2017-06-24T04:43:39.160Z,24.23
2017-06-24T04:44:39.203Z,24.29
2017-06-24T04:45:39.239Z,24.35
2017-06-24T04:46:39.282Z,24.53
2017-06-24T04:47:39.325Z,24.94
2017-06-24T04:48:39.370Z,25.38
2017-06-24T04:49:39.407Z,25.83
2017-06-24T04:50:39.458Z,26.31
2017-06-24T04:51:39.496Z,26.59
2017-06-24T04:52:39.850Z,27.01
2017-06-24T04:53:39.579Z,27.16
2017-06-24T04:54:39.932Z,27.1
2017-06-24T04:55:39.672Z,26.91
2017-06-24T04:56:39.713Z,26.67
2017-06-24T04:57:40.067Z,26.35
2017-06-24T04:58:40.112Z,26.01
2017-06-24T04:59:39.838Z,25.67
2017-06-24T05:00:39.890Z,25.27
2017-06-24T05:01:39.929Z,25.02
2017-06-24T05:02:39.977Z,24.88
2017-06-24T05:03:40.019Z,24.73
2017-06-24T05:04:40.060Z,24.77
2017-06-24T05:05:40.104Z,25.01
2017-06-24T05:06:40.145Z,25.2
2017-06-24T05:07:40.190Z,25.54
2017-06-24T05:08:40.233Z,25.94
2017-06-24T05:09:40.279Z,26.21
2017-06-24T05:10:40.322Z,26.35
2017-06-24T05:11:40.359Z,26.35
2017-06-24T05:12:41.026Z,26.2
2017-06-24T05:13:40.749Z,25.97
2017-06-24T05:14:40.495Z,25.82
2017-06-24T05:15:40.847Z,25.62
2017-06-24T05:16:40.582Z,25.43
2017-06-24T05:17:40.626Z,25.32
2017-06-24T05:18:40.666Z,25.15
2017-06-24T05:19:40.710Z,25.01
2017-06-24T05:20:41.063Z,24.87
2017-06-24T05:21:40.792Z,24.88
2017-06-24T05:22:41.141Z,24.77
2017-06-24T05:23:40.884Z,24.64
2017-06-24T05:24:40.930Z,24.54
2017-06-24T05:25:40.965Z,24.38
2017-06-24T05:26:41.312Z,24.31
2017-06-24T05:27:41.363Z,24.24
2017-06-24T05:28:41.097Z,24.37
2017-06-24T05:29:41.450Z,24.27
2017-06-24T05:30:41.186Z,24.42
2017-06-24T05:31:41.224Z,24.39
2017-06-24T05:32:41.271Z,24.39
2017-06-24T05:33:41.310Z,24.39
2017-06-24T05:34:41.658Z,24.41
2017-06-24T05:35:41.705Z,24.44
2017-06-24T05:36:41.436Z,24.5
2017-06-24T05:37:41.476Z,24.49
2017-06-24T05:38:41.837Z,24.5
2017-06-24T05:39:41.565Z,24.5
2017-06-24T05:40:41.614Z,24.57
2017-06-24T05:41:41.655Z,24.54
2017-06-24T05:42:42.019Z,24.68
2017-06-24T05:43:42.051Z,24.85
2017-06-24T05:44:41.784Z,25.1
2017-06-24T05:45:41.832Z,25.47
2017-06-24T05:46:41.881Z,26.09
2017-06-24T05:47:41.918Z,26.69
2017-06-24T05:48:41.959Z,27.39
2017-06-24T05:49:42.001Z,28.07
2017-06-24T05:50:42.051Z,28.91
2017-06-24T05:51:42.405Z,29.47
2017-06-24T05:52:42.147Z,30
2017-06-24T05:53:42.190Z,30.43
2017-06-24T05:54:42.234Z,30.83
2017-06-24T05:55:42.277Z,31.05
2017-06-24T05:56:42.641Z,31.27
2017-06-24T05:57:42.684Z,31.58
2017-06-24T05:58:42.418Z,31.82
2017-06-24T05:59:43.088Z,31.88
2017-06-24T06:00:42.518Z,32.07
2017-06-24T06:01:42.567Z,32.36
2017-06-24T06:02:42.616Z,32.49
2017-06-24T06:03:42.658Z,32.79
2017-06-24T06:04:43.020Z,33.04
2017-06-24T06:05:43.062Z,33.27
2017-06-24T06:06:42.838Z,33.53
2017-06-24T06:07:42.853Z,33.79
2017-06-24T06:08:42.908Z,33.82
2017-06-24T06:09:42.955Z,33.78
2017-06-24T06:10:43.006Z,33.85
2017-06-24T06:11:43.053Z,33.95
2017-06-24T06:12:43.107Z,34
2017-06-24T06:13:43.160Z,34.01
2017-06-24T06:14:43.208Z,34
2017-06-24T06:15:43.258Z,34.13
2017-06-24T06:16:43.306Z,34.14
2017-06-24T06:17:43.358Z,34.23
2017-06-24T06:18:43.414Z,34.36
2017-06-24T06:19:43.460Z,34.39
2017-06-24T06:20:43.520Z,34.51
2017-06-24T06:21:43.564Z,34.58
2017-06-24T06:22:43.614Z,34.72
2017-06-24T06:23:43.971Z,34.83
2017-06-24T06:24:43.712Z,34.86
2017-06-24T06:25:43.772Z,34.84
2017-06-24T06:26:43.825Z,35.01
2017-06-24T06:27:44.182Z,35.08
2017-06-24T06:28:43.920Z,35.35
2017-06-24T06:29:43.976Z,35.63
2017-06-24T06:30:44.338Z,35.7
2017-06-24T06:31:44.084Z,35.92
2017-06-24T06:32:44.129Z,36.2
2017-06-24T06:33:44.186Z,36.39
2017-06-24T06:34:44.547Z,36.57
2017-06-24T06:35:44.298Z,36.72
2017-06-24T06:36:44.655Z,36.79
2017-06-24T06:37:44.391Z,36.91
2017-06-24T06:38:44.449Z,37.12
2017-06-24T06:39:44.530Z,37.09
2017-06-24T06:40:44.561Z,37.05
2017-06-24T06:41:44.609Z,37.16
2017-06-24T06:42:44.666Z,37.19
2017-06-24T06:43:44.719Z,37.26
2017-06-24T06:44:44.770Z,37.39
2017-06-24T06:45:44.833Z,37.5
2017-06-24T06:46:44.877Z,37.68
2017-06-24T06:47:44.937Z,37.96
2017-06-24T06:48:44.996Z,38.14
2017-06-24T06:49:45.352Z,38.18
2017-06-24T06:50:45.101Z,37.95
2017-06-24T06:51:45.463Z,37.85
2017-06-24T06:52:45.512Z,38.05
2017-06-24T06:53:45.571Z,38.34
2017-06-24T06:54:45.632Z,38.46
2017-06-24T06:55:45.373Z,38.68
2017-06-24T06:56:45.431Z,39.01
2017-06-24T06:57:45.479Z,39.22
2017-06-24T06:58:45.535Z,39.02
2017-06-24T06:59:45.596Z,38.95
2017-06-24T07:00:45.643Z,38.95
2017-06-24T07:01:45.710Z,38.87
2017-06-24T07:02:45.760Z,38.96
2017-06-24T07:03:46.125Z,38.99
2017-06-24T07:04:45.873Z,38.96
2017-06-24T07:05:45.927Z,38.95
2017-06-24T07:06:45.983Z,38.9
2017-06-24T07:07:46.040Z,38.82
2017-06-24T07:08:46.095Z,38.58
2017-06-24T07:09:46.169Z,38.52
2017-06-24T07:10:46.211Z,38.57
2017-06-24T07:11:46.564Z,38.66
2017-06-24T07:12:46.315Z,38.63
2017-06-24T07:13:46.372Z,38.73
2017-06-24T07:14:46.422Z,38.85
2017-06-24T07:15:46.479Z,38.85
2017-06-24T07:16:46.564Z,39.02
2017-06-24T07:17:46.595Z,39.02
2017-06-24T07:18:46.648Z,39.13
2017-06-24T07:19:46.707Z,39.17
2017-06-24T07:20:46.758Z,39.24
2017-06-24T07:21:47.126Z,39.39
2017-06-24T07:22:46.872Z,39.59
2017-06-24T07:23:46.932Z,39.73
2017-06-24T07:24:46.988Z,39.93
2017-06-24T07:25:47.040Z,40.24
2017-06-24T07:26:47.098Z,40.54
2017-06-24T07:27:47.153Z,40.88
2017-06-24T07:28:47.218Z,41.08
2017-06-24T07:29:47.280Z,41.28
2017-06-24T07:30:47.329Z,41.46
2017-06-24T07:31:47.692Z,41.55
2017-06-24T07:32:47.442Z,41.63
2017-06-24T07:33:48.117Z,41.59
2017-06-24T07:34:47.559Z,41.61
2017-06-24T07:35:47.618Z,41.47
2017-06-24T07:36:47.671Z,41.34
2017-06-24T07:37:47.728Z,41.09
2017-06-24T07:38:47.795Z,40.99
2017-06-24T07:39:47.852Z,40.96
2017-06-24T07:40:47.905Z,40.99
2017-06-24T07:41:47.963Z,41.13
2017-06-24T07:42:48.022Z,41.22
2017-06-24T07:43:48.090Z,41.44
2017-06-24T07:44:48.138Z,41.5
2017-06-24T07:45:48.193Z,41.43
2017-06-24T07:46:48.563Z,41.24
2017-06-24T07:47:48.625Z,41.28
2017-06-24T07:48:48.683Z,41.24
2017-06-24T07:49:48.426Z,41.34
2017-06-24T07:50:48.818Z,41.36
2017-06-24T07:51:48.551Z,41.46
2017-06-24T07:52:48.606Z,41.44
2017-06-24T07:53:48.688Z,41.49
2017-06-24T07:54:48.749Z,41.27
2017-06-24T07:55:48.783Z,41.15
2017-06-24T07:56:48.844Z,41.09
2017-06-24T07:57:48.894Z,41.06
2017-06-24T07:58:49.270Z,41.1
2017-06-24T07:59:49.018Z,41.18
2017-06-24T08:00:49.385Z,41.18
2017-06-24T08:01:49.131Z,41.22
2017-06-24T08:02:49.194Z,41.25
2017-06-24T08:03:49.249Z,41.24
2017-06-24T08:04:49.311Z,41.09
2017-06-24T08:05:49.675Z,40.91
2017-06-24T08:06:49.739Z,40.9
2017-06-24T08:07:49.487Z,40.74
2017-06-24T08:08:49.856Z,40.53
2017-06-24T08:09:49.910Z,40.27
2017-06-24T08:10:49.667Z,40.21
2017-06-24T08:11:49.720Z,40.43
2017-06-24T08:12:50.088Z,40.62
2017-06-24T08:13:50.147Z,40.68
2017-06-24T08:14:49.896Z,40.64
2017-06-24T08:15:50.261Z,40.45
2017-06-24T08:16:50.627Z,40.49
2017-06-24T08:17:50.384Z,40.45
2017-06-24T08:18:50.132Z,40.21
2017-06-24T08:19:50.187Z,40.12
2017-06-24T08:20:50.252Z,40
2017-06-24T08:21:50.620Z,40.1
2017-06-24T08:22:50.369Z,40.14
2017-06-24T08:23:50.433Z,40.15
2017-06-24T08:24:50.796Z,40.12
2017-06-24T08:25:50.544Z,39.99
2017-06-24T08:26:50.606Z,39.98
2017-06-24T08:27:50.658Z,39.98
2017-06-24T08:28:50.742Z,40.12
2017-06-24T08:29:51.086Z,40.26
2017-06-24T08:30:50.834Z,40.47
2017-06-24T08:31:51.208Z,40.79
2017-06-24T08:32:51.269Z,41.1
2017-06-24T08:33:51.012Z,41.39
2017-06-24T08:34:51.087Z,41.47
2017-06-24T08:35:51.749Z,41.52
2017-06-24T08:36:51.186Z,41.54
2017-06-24T08:37:51.588Z,41.44
2017-06-24T08:38:51.620Z,41.27
2017-06-24T08:39:51.371Z,41.09
2017-06-24T08:40:51.734Z,40.86
2017-06-24T08:41:51.483Z,40.69
2017-06-24T08:42:52.162Z,40.33
2017-06-24T08:43:51.604Z,40.11
2017-06-24T08:44:51.664Z,39.95
2017-06-24T08:45:52.031Z,39.69
2017-06-24T08:46:51.781Z,39.56
2017-06-24T08:47:52.150Z,39.56
2017-06-24T08:48:52.203Z,39.54
2017-06-24T08:49:51.959Z,39.47
2017-06-24T08:50:52.019Z,39.24
2017-06-24T08:51:52.080Z,38.98
2017-06-24T08:52:52.134Z,38.7
2017-06-24T08:53:52.498Z,38.63
2017-06-24T08:54:52.252Z,38.48
2017-06-24T08:55:52.317Z,38.3
2017-06-24T08:56:52.376Z,38.18
2017-06-24T08:57:52.425Z,38.15
2017-06-24T08:58:52.489Z,38.14
2017-06-24T08:59:52.552Z,38.17
2017-06-24T09:00:52.610Z,38.22
2017-06-24T09:01:52.667Z,38.18
2017-06-24T09:02:52.725Z,38.01
2017-06-24T09:03:52.779Z,37.85
2017-06-24T09:04:53.460Z,37.78
2017-06-24T09:05:52.902Z,37.83
2017-06-24T09:06:53.573Z,37.77
2017-06-24T09:07:53.333Z,37.56
2017-06-24T09:08:53.072Z,37.48
2017-06-24T09:09:53.133Z,37.36
2017-06-24T09:10:53.194Z,37.29
2017-06-24T09:11:53.253Z,37.05
2017-06-24T09:12:53.308Z,36.99
2017-06-24T09:13:53.369Z,36.85
2017-06-24T09:14:53.742Z,36.64
2017-06-24T09:15:53.489Z,36.56
2017-06-24T09:16:53.545Z,36.33
2017-06-24T09:17:53.913Z,36.19
2017-06-24T09:18:53.988Z,36.2
2017-06-24T09:19:53.721Z,36.17
2017-06-24T09:20:53.782Z,36.17
2017-06-24T09:21:54.142Z,36.21
2017-06-24T09:22:54.119Z,36.35
2017-06-24T09:23:54.264Z,36.33
2017-06-24T09:24:54.017Z,36.35
2017-06-24T09:25:54.070Z,36.36
2017-06-24T09:26:54.134Z,36.46
2017-06-24T09:27:54.500Z,36.58
2017-06-24T09:28:54.257Z,36.75
2017-06-24T09:29:54.617Z,36.83
2017-06-24T09:30:54.366Z,37.12
2017-06-24T09:31:54.421Z,37.07
2017-06-24T09:32:54.483Z,37.2
2017-06-24T09:33:54.546Z,37.1
2017-06-24T09:34:54.606Z,36.87
2017-06-24T09:35:54.660Z,36.8
2017-06-24T09:36:55.025Z,36.63
2017-06-24T09:37:54.779Z,36.49
2017-06-24T09:38:54.836Z,36.29
2017-06-24T09:39:54.894Z,36.11
2017-06-24T09:40:54.953Z,35.91
2017-06-24T09:41:55.326Z,35.84
2017-06-24T09:42:55.067Z,35.58
2017-06-24T09:43:55.125Z,35.51
2017-06-24T09:44:55.189Z,35.42
2017-06-24T09:45:55.242Z,35.44
2017-06-24T09:46:55.304Z,35.32
2017-06-24T09:47:55.360Z,35.35
2017-06-24T09:48:55.425Z,35.39
2017-06-24T09:49:56.097Z,35.4
2017-06-24T09:50:55.541Z,35.33
2017-06-24T09:51:55.599Z,35.18
2017-06-24T09:52:55.658Z,35.25
2017-06-24T09:53:55.710Z,35.25
2017-06-24T09:54:55.775Z,35.18
2017-06-24T09:55:56.145Z,34.96
2017-06-24T09:56:55.892Z,34.74
2017-06-24T09:57:55.951Z,34.57
2017-06-24T09:58:56.013Z,34.36
2017-06-24T09:59:56.065Z,34.23
2017-06-24T10:00:56.131Z,34.09
2017-06-24T10:01:56.187Z,34.09
2017-06-24T10:02:56.559Z,34.08
2017-06-24T10:03:56.611Z,34.08
2017-06-24T10:04:56.362Z,33.98
2017-06-24T10:05:56.754Z,34.14
2017-06-24T10:06:56.484Z,34.19
2017-06-24T10:07:56.540Z,34.02
2017-06-24T10:08:56.595Z,34.01
2017-06-24T10:09:57.272Z,33.86
2017-06-24T10:10:56.713Z,33.86
2017-06-24T10:11:56.769Z,33.7
2017-06-24T10:12:57.142Z,33.67
2017-06-24T10:13:56.895Z,33.63
2017-06-24T10:14:56.949Z,33.57
2017-06-24T10:15:57.009Z,33.64
2017-06-24T10:16:57.374Z,33.61
2017-06-24T10:17:57.436Z,33.65
2017-06-24T10:18:57.489Z,33.6
2017-06-24T10:19:57.557Z,33.55
2017-06-24T10:20:57.305Z,33.65
2017-06-24T10:21:57.358Z,33.6
2017-06-24T10:22:57.422Z,33.41
2017-06-24T10:23:57.481Z,33.31
2017-06-24T10:24:57.842Z,33.22
2017-06-24T10:25:57.597Z,33.11
2017-06-24T10:26:57.972Z,33.04
2017-06-24T10:27:57.709Z,33.04
2017-06-24T10:28:58.082Z,32.95
2017-06-24T10:29:57.838Z,32.8
2017-06-24T10:30:57.887Z,32.67
2017-06-24T10:31:57.947Z,32.55
2017-06-24T10:32:58.318Z,32.14
2017-06-24T10:33:58.292Z,32
2017-06-24T10:34:58.431Z,31.82
2017-06-24T10:35:58.494Z,31.77
2017-06-24T10:36:58.241Z,31.73
2017-06-24T10:37:58.295Z,31.64
2017-06-24T10:38:58.673Z,31.67
2017-06-24T10:39:58.421Z,31.62
2017-06-24T10:40:58.477Z,31.55
2017-06-24T10:41:58.535Z,31.53
2017-06-24T10:42:59.210Z,31.27
2017-06-24T10:43:58.958Z,31.23
2017-06-24T10:44:59.021Z,31.15
2017-06-24T10:45:59.074Z,31.09
2017-06-24T10:46:58.836Z,31.01
2017-06-24T10:47:58.887Z,30.89
2017-06-24T10:48:58.942Z,30.87
2017-06-24T10:49:59.009Z,30.87
2017-06-24T10:50:59.059Z,30.81
2017-06-24T10:51:59.431Z,30.64
2017-06-24T10:52:59.177Z,30.54
2017-06-24T10:53:59.547Z,30.5
2017-06-24T10:54:59.601Z,30.43
2017-06-24T10:55:59.350Z,30.43
2017-06-24T10:56:59.412Z,30.34
2017-06-24T10:57:59.468Z,30.24
2017-06-24T10:58:59.520Z,30.16
2017-06-24T10:59:59.583Z,30.18
2017-06-24T11:00:59.943Z,30.07
2017-06-24T11:01:59.696Z,30.09
2017-06-24T11:02:59.750Z,30.12
2017-06-24T11:03:59.807Z,30.18
2017-06-24T11:04:59.865Z,30.18
2017-06-24T11:05:59.913Z,30.18
2017-06-24T11:07:00.283Z,30.18
2017-06-24T11:08:00.024Z,30.33
2017-06-24T11:09:00.075Z,30.4
2017-06-24T11:10:00.129Z,30.38
2017-06-24T11:11:00.487Z,30.34
2017-06-24T11:12:00.544Z,30.19
2017-06-24T11:13:00.598Z,30.21
2017-06-24T11:14:00.696Z,30.08
2017-06-24T11:15:00.391Z,30.15
2017-06-24T11:16:00.449Z,30.07
2017-06-24T11:17:00.501Z,30.11
2017-06-24T11:18:00.549Z,30.11
2017-06-24T11:19:00.594Z,29.9
2017-06-24T11:20:00.647Z,29.93
2017-06-24T11:21:00.722Z,29.89
2017-06-24T11:22:00.750Z,29.89
2017-06-24T11:23:01.119Z,29.74
2017-06-24T11:24:00.845Z,29.59
2017-06-24T11:25:00.899Z,29.59
2017-06-24T11:26:01.252Z,29.56
2017-06-24T11:27:01.300Z,29.44
2017-06-24T11:28:01.046Z,29.41
2017-06-24T11:29:01.095Z,29.41
2017-06-24T11:30:01.143Z,29.44
2017-06-24T11:31:01.186Z,29.33
2017-06-24T11:32:01.244Z,29.29
2017-06-24T11:33:01.287Z,29.29
2017-06-24T11:34:01.561Z,29.31
2017-06-24T11:35:01.695Z,29.2
2017-06-24T11:36:01.438Z,29.16
2017-06-24T11:37:01.792Z,29.11
2017-06-24T11:38:01.524Z,29.07
2017-06-24T11:39:01.580Z,29.01
2017-06-24T11:40:01.625Z,28.97
2017-06-24T11:41:01.975Z,28.82
2017-06-24T11:42:02.044Z,28.84
2017-06-24T11:43:01.764Z,28.84
2017-06-24T11:44:01.853Z,28.88
2017-06-24T11:45:01.866Z,28.9
2017-06-24T11:46:01.907Z,28.9
2017-06-24T11:47:01.958Z,28.9
2017-06-24T11:48:02.005Z,28.8
2017-06-24T11:49:02.359Z,28.87
2017-06-24T11:50:02.098Z,28.84
2017-06-24T11:51:02.140Z,28.9
2017-06-24T11:52:02.505Z,28.87
2017-06-24T11:53:02.237Z,28.97
2017-06-24T11:54:02.288Z,28.97
2017-06-24T11:55:02.334Z,29.03
2017-06-24T11:56:02.379Z,29.04
2017-06-24T11:57:02.427Z,29.06
2017-06-24T11:58:02.473Z,29.06
2017-06-24T11:59:02.522Z,29.11
2017-06-24T12:00:02.571Z,29.22
2017-06-24T12:01:02.616Z,29.19
2017-06-24T12:02:02.666Z,29.03
2017-06-24T12:03:02.710Z,29.08
2017-06-24T12:04:03.056Z,29.01
2017-06-24T12:05:02.802Z,28.93
2017-06-24T12:06:02.849Z,28.91
2017-06-24T12:07:02.901Z,28.93
2017-06-24T12:08:02.940Z,28.93
2017-06-24T12:09:02.991Z,28.85
2017-06-24T12:10:03.347Z,28.93
2017-06-24T12:11:03.087Z,28.88
2017-06-24T12:12:03.130Z,28.82
2017-06-24T12:13:03.176Z,28.77
2017-06-24T12:14:03.223Z,28.75
2017-06-24T12:15:03.271Z,28.69
2017-06-24T12:16:03.626Z,28.73
2017-06-24T12:17:03.673Z,28.68
2017-06-24T12:18:03.413Z,28.75
2017-06-24T12:19:03.770Z,28.81
2017-06-24T12:20:03.502Z,28.7
2017-06-24T12:21:03.557Z,28.75
2017-06-24T12:22:03.595Z,28.82
2017-06-24T12:23:03.950Z,28.77
2017-06-24T12:24:04.043Z,28.77
2017-06-24T12:25:03.734Z,28.72
2017-06-24T12:26:03.780Z,28.68
2017-06-24T12:27:04.152Z,28.62
2017-06-24T12:28:03.879Z,28.6
2017-06-24T12:29:03.931Z,28.66
2017-06-24T12:30:03.965Z,28.63
2017-06-24T12:31:04.324Z,28.48
2017-06-24T12:32:04.078Z,28.56
2017-06-24T12:33:04.112Z,28.58
2017-06-24T12:34:04.465Z,28.51
2017-06-24T12:35:04.206Z,28.47
2017-06-24T12:36:04.554Z,28.48
2017-06-24T12:37:04.309Z,28.44
2017-06-24T12:38:04.337Z,28.53
2017-06-24T12:39:04.696Z,28.48
2017-06-24T12:40:04.430Z,28.53
2017-06-24T12:41:04.483Z,28.46
2017-06-24T12:42:04.521Z,28.48
2017-06-24T12:43:04.573Z,28.63
2017-06-24T12:44:04.619Z,28.53
2017-06-24T12:45:04.670Z,28.51
2017-06-24T12:46:05.036Z,28.56
2017-06-24T12:47:04.762Z,28.65
2017-06-24T12:48:04.802Z,28.78
2017-06-24T12:49:04.858Z,28.63
2017-06-24T12:50:04.895Z,28.63
2017-06-24T12:51:05.562Z,28.69
2017-06-24T12:52:05.293Z,28.59
2017-06-24T12:53:05.037Z,28.51
2017-06-24T12:54:05.079Z,28.51
2017-06-24T12:55:05.126Z,28.51
2017-06-24T12:56:05.172Z,28.44